Time;durP1;ratioP1;P1;durP2;ratioP2;P2;SDS_P1;SDS_P2;PMS_P1;PMS_P2;Temp;Humidity;BMP_temperature;BMP_pressure;BME280_temperature;BME280_humidity;BME280_pressure;Samples;Min_cycle;Max_cycle;Signal;HPM_P1;HPM_P2
2022/04/23 00:00:59;;;;;;;9.32;7.03;;;;;;;10.83;100.00;101007.25;4920041;29;20047;-82
2022/04/23 00:03:27;;;;;;;10.45;7.15;;;;;;;10.84;100.00;101017.81;4912821;28;20051;-81
2022/04/23 00:05:56;;;;;;;17.98;7.72;;;;;;;10.84;100.00;101014.31;4928097;29;20036;-82
2022/04/23 00:08:25;;;;;;;15.55;7.63;;;;;;;10.84;100.00;101009.91;4935055;28;20040;-81
2022/04/23 00:10:53;;;;;;;11.20;6.65;;;;;;;10.85;100.00;101016.94;4924977;28;20039;-83
2022/04/23 00:13:22;;;;;;;12.68;7.88;;;;;;;10.86;100.00;101009.91;4921550;29;20060;-81
2022/04/23 00:15:51;;;;;;;12.70;7.63;;;;;;;10.87;100.00;101001.16;4925748;29;20063;-82
2022/04/23 00:18:20;;;;;;;9.68;7.25;;;;;;;10.88;100.00;101003.75;4889718;29;20051;-83
2022/04/23 00:20:48;;;;;;;14.40;7.10;;;;;;;10.91;100.00;100997.66;4911462;29;20040;-83
2022/04/23 00:23:17;;;;;;;11.00;7.50;;;;;;;10.92;100.00;100997.63;4900273;29;20050;-82
2022/04/23 00:25:50;;;;;;;12.13;8.02;;;;;;;10.95;100.00;100998.53;4903637;29;20052;-81
2022/04/23 00:28:19;;;;;;;12.05;8.10;;;;;;;10.96;100.00;100987.09;4899625;29;20245;-82
2022/04/23 00:30:48;;;;;;;9.63;8.07;;;;;;;10.96;100.00;100987.09;4912636;29;20055;-81
2022/04/23 00:33:17;;;;;;;15.38;7.97;;;;;;;10.93;100.00;101002.03;4928548;28;26098;-83
2022/04/23 00:35:48;;;;;;;10.30;7.68;;;;;;;10.91;100.00;101001.16;4943405;28;20052;-81
2022/04/23 00:38:17;;;;;;;11.00;7.82;;;;;;;10.87;100.00;101001.16;4905852;29;20055;-83
2022/04/23 00:40:46;;;;;;;12.20;7.97;;;;;;;10.83;100.00;100992.34;4914291;29;20067;-83
2022/04/23 00:43:29;;;;;;;12.07;7.82;;;;;;;10.80;100.00;101002.84;4909108;29;20274;-84
2022/04/23 00:45:58;;;;;;;9.27;7.10;;;;;;;10.78;100.00;101001.09;4922467;29;20394;-81
2022/04/23 00:48:26;;;;;;;11.43;7.68;;;;;;;10.74;100.00;101002.84;4929447;29;20426;-82
2022/04/23 00:50:56;;;;;;;11.95;7.78;;;;;;;10.72;100.00;101004.59;4924154;28;20393;-82
2022/04/23 00:53:26;;;;;;;12.70;8.18;;;;;;;10.69;100.00;101004.56;4936163;28;20239;-82
2022/04/23 00:55:54;;;;;;;10.73;8.60;;;;;;;10.66;100.00;100999.25;4906415;29;20048;-81
2022/04/23 00:58:23;;;;;;;11.60;7.75;;;;;;;10.63;100.00;100997.50;4924838;29;20341;-81
2022/04/23 01:00:51;;;;;;;9.32;7.75;;;;;;;10.62;100.00;100993.09;4892663;29;20045;-83
2022/04/23 01:03:21;;;;;;;10.35;8.32;;;;;;;10.63;100.00;100994.00;4922473;29;20533;-84
2022/04/23 01:05:51;;;;;;;12.87;8.20;;;;;;;10.62;100.00;101003.63;4889511;29;20044;-83
2022/04/23 01:08:19;;;;;;;9.02;7.88;;;;;;;10.65;100.00;101002.78;4910042;29;20048;-83
2022/04/23 01:10:48;;;;;;;15.23;8.48;;;;;;;10.66;100.00;101008.06;4937417;28;20051;-83
2022/04/23 01:13:17;;;;;;;9.90;8.00;;;;;;;10.66;100.00;100994.00;4940567;28;20333;-84
2022/04/23 01:16:04;;;;;;;10.77;8.40;;;;;;;10.65;100.00;101010.69;4937768;28;20056;-83
2022/04/23 01:18:36;;;;;;;10.77;8.10;;;;;;;10.61;100.00;101006.28;4924385;29;20056;-84
2022/04/23 01:21:05;;;;;;;10.18;8.38;;;;;;;10.56;100.00;101000.97;4906048;29;20060;-84
2022/04/23 01:23:35;;;;;;;15.77;8.70;;;;;;;10.53;100.00;101004.47;4943326;28;20490;-84
2022/04/23 01:26:04;;;;;;;13.55;8.57;;;;;;;10.49;100.00;101005.34;4932473;28;20048;-83
2022/04/23 01:28:34;;;;;;;13.50;8.80;;;;;;;10.45;100.00;101011.47;4911509;29;20082;-84
2022/04/23 01:31:04;;;;;;;;;;;;;;;10.37;100.00;101002.63;4940949;28;20040;-82
2022/04/23 01:33:33;;;;;;;13.07;9.15;;;;;;;10.29;100.00;101004.28;4925310;29;19923;-83
2022/04/23 01:36:03;;;;;;;12.75;8.40;;;;;;;10.21;100.00;101001.59;4931999;28;20048;-83
2022/04/23 01:38:34;;;;;;;11.27;8.85;;;;;;;10.16;100.00;100998.06;4940027;28;20421;-84
2022/04/23 01:41:02;;;;;;;13.73;8.70;;;;;;;10.09;100.00;101002.41;4937481;28;20055;-83
2022/04/23 01:43:31;;;;;;;14.45;8.73;;;;;;;10.06;100.00;101005.00;4939900;28;20040;-83
2022/04/23 01:45:59;;;;;;;14.70;9.05;;;;;;;10.04;100.00;101008.50;4924972;29;20043;-84
2022/04/23 01:48:27;;;;;;;12.00;8.30;;;;;;;10.01;100.00;101004.06;4891401;29;20051;-83
2022/04/23 01:50:56;;;;;;;11.00;8.10;;;;;;;9.98;100.00;101001.44;4915476;29;20489;-83
2022/04/23 01:53:25;;;;;;;16.27;9.15;;;;;;;9.94;100.00;101016.31;4911803;28;20052;-83
2022/04/23 01:55:55;;;;;;;12.73;8.10;;;;;;;9.93;100.00;101016.31;4921236;29;20045;-83
2022/04/23 01:58:24;;;;;;;12.73;9.18;;;;;;;9.91;100.00;101011.03;4941861;28;20509;-83
2022/04/23 02:00:53;;;;;;;11.90;8.55;;;;;;;9.88;100.00;101004.84;4943975;28;20036;-83
2022/04/23 02:03:23;;;;;;;12.40;8.18;;;;;;;9.85;100.00;101016.25;4910636;29;20047;-83
2022/04/23 02:05:51;;;;;;;12.85;8.55;;;;;;;9.84;100.00;101010.97;4932608;29;20048;-83
2022/04/23 02:08:20;;;;;;;13.95;9.13;;;;;;;9.82;100.00;101012.69;4892374;29;20139;-83
2022/04/23 02:10:48;;;;;;;11.30;8.07;;;;;;;9.78;100.00;101009.16;4907619;29;20051;-83
2022/04/23 02:13:17;;;;;;;14.88;8.43;;;;;;;9.75;100.00;101006.47;4927844;29;20056;-84
2022/04/23 02:15:45;;;;;;;10.73;8.02;;;;;;;9.72;100.00;101003.84;4916191;29;20394;-83
2022/04/23 02:18:16;;;;;;;12.52;8.35;;;;;;;9.71;100.00;101012.59;4931091;28;20453;-84
2022/04/23 02:20:44;;;;;;;12.55;8.57;;;;;;;9.69;100.00;101007.31;4932842;29;20052;-83
2022/04/23 02:23:13;;;;;;;12.23;8.32;;;;;;;9.68;100.00;100995.03;4893716;29;21017;-83
2022/04/23 02:25:42;;;;;;;12.60;8.50;;;;;;;9.66;100.00;101002.03;4956856;28;20044;-84
2022/04/23 02:28:11;;;;;;;12.10;8.63;;;;;;;9.63;100.00;101002.00;4895013;29;20057;-84
2022/04/23 02:30:39;;;;;;;13.15;8.73;;;;;;;9.60;100.00;100999.31;4942649;28;20395;-84
2022/04/23 02:33:07;;;;;;;12.35;8.55;;;;;;;9.59;100.00;100997.56;4909721;29;20490;-84
2022/04/23 02:35:36;;;;;;;11.02;8.40;;;;;;;9.55;100.00;100994.03;4944191;28;20059;-82
2022/04/23 02:38:05;;;;;;;11.32;7.95;;;;;;;9.53;100.00;100998.41;4887151;29;20052;-83
2022/04/23 02:40:34;;;;;;;9.73;8.63;;;;;;;9.52;100.00;101006.25;4953270;28;20047;-83
2022/04/23 02:43:03;;;;;;;11.85;8.57;;;;;;;9.50;100.00;101000.09;4921785;29;20395;-83
2022/04/23 02:45:32;;;;;;;10.18;8.32;;;;;;;9.49;100.00;100996.59;4913599;29;20549;-84
2022/04/23 02:48:01;;;;;;;12.05;8.57;;;;;;;9.49;100.00;101004.50;4914173;29;20028;-83
2022/04/23 02:50:37;;;;;;;12.30;8.73;;;;;;;9.48;100.00;100993.97;4912882;29;20182;-84
2022/04/23 02:53:07;;;;;;;9.88;8.52;;;;;;;9.46;100.00;100999.19;4943297;28;20048;-84
2022/04/23 02:55:37;;;;;;;12.48;8.88;;;;;;;9.46;100.00;100999.19;4897432;29;20063;-83
2022/04/23 02:58:08;;;;;;;10.63;8.43;;;;;;;9.45;100.00;100999.19;4937174;28;20059;-83
2022/04/23 03:00:40;;;;;;;11.80;7.97;;;;;;;9.46;100.00;100999.19;4945585;28;20059;-82
2022/04/23 03:03:09;;;;;;;12.88;9.07;;;;;;;9.44;100.00;101000.94;4908575;29;20573;-85
2022/04/23 03:05:42;;;;;;;10.65;8.35;;;;;;;9.43;100.00;100993.03;4922090;29;20067;-83
2022/04/23 03:08:12;;;;;;;10.77;8.73;;;;;;;9.42;100.00;100992.16;4943589;28;20402;-85
2022/04/23 03:10:41;;;;;;;10.70;8.77;;;;;;;9.41;100.00;100993.00;4942457;28;20040;-84
2022/04/23 03:13:10;;;;;;;10.05;8.57;;;;;;;9.40;100.00;100991.25;4935370;28;20059;-83
2022/04/23 03:15:39;;;;;;;10.63;8.85;;;;;;;9.39;100.00;100993.84;4883389;29;20063;-83
2022/04/23 03:18:10;;;;;;;11.73;9.55;;;;;;;9.39;100.00;100993.84;4897878;29;20048;-84
2022/04/23 03:20:41;;;;;;;11.55;9.32;;;;;;;9.38;100.00;100990.34;4925125;29;20048;-83
2022/04/23 03:23:09;;;;;;;;;;;;;;;9.36;100.00;100990.34;4943921;28;20044;-82
2022/04/23 03:25:38;;;;;;;13.40;8.63;;;;;;;9.34;100.00;100989.44;4928623;28;19930;-83
2022/04/23 03:28:07;;;;;;;10.30;9.18;;;;;;;9.33;100.00;101006.06;4937449;28;20040;-84
2022/04/23 03:30:35;;;;;;;10.70;8.68;;;;;;;9.32;100.00;101008.72;4915551;29;20055;-84
2022/04/23 03:33:04;;;;;;;11.73;9.73;;;;;;;9.29;100.00;101008.66;4913700;29;20044;-83
2022/04/23 03:35:32;;;;;;;10.85;9.45;;;;;;;9.27;100.00;101007.75;4944783;28;20100;-83
2022/04/23 03:38:01;;;;;;;11.13;9.27;;;;;;;9.24;100.00;101007.72;4891704;29;20067;-83
2022/04/23 03:40:30;;;;;;;13.40;9.40;;;;;;;9.21;100.00;101003.31;4916955;29;20366;-84
2022/04/23 03:42:59;;;;;;;12.70;10.15;;;;;;;9.20;100.00;101003.31;4926639;29;20056;-84
2022/04/23 03:45:28;;;;;;;12.38;10.15;;;;;;;9.17;100.00;101002.41;4938801;28;20139;-83
2022/04/23 03:48:01;;;;;;;11.05;9.27;;;;;;;9.14;100.00;101001.47;4911454;29;20379;-84
2022/04/23 03:50:31;;;;;;;10.25;8.80;;;;;;;9.10;100.00;100992.66;4940981;28;20048;-84
2022/04/23 03:52:59;;;;;;;12.50;9.07;;;;;;;9.08;100.00;100996.16;4904386;29;20043;-84
2022/04/23 03:55:28;;;;;;;13.98;9.68;;;;;;;9.07;100.00;101002.28;4910078;29;20049;-83
2022/04/23 03:57:56;;;;;;;11.77;9.32;;;;;;;9.05;100.00;100997.00;4931763;29;20056;-84
2022/04/23 04:00:25;;;;;;;9.98;8.95;;;;;;;9.01;100.00;101004.84;4906868;29;20171;-84
2022/04/23 04:02:54;;;;;;;12.18;10.00;;;;;;;9.00;100.00;101000.41;4929255;29;20052;-85
2022/04/23 04:05:28;;;;;;;9.70;8.57;;;;;;;8.98;100.00;100996.03;4928113;29;20261;-83
2022/04/23 04:07:56;;;;;;;10.25;9.23;;;;;;;8.96;100.00;100996.91;4940588;28;20036;-83
2022/04/23 04:10:25;;;;;;;14.07;9.77;;;;;;;8.95;100.00;100996.00;4920242;29;20044;-83
2022/04/23 04:12:54;;;;;;;12.13;9.50;;;;;;;8.94;100.00;101004.75;4929899;29;20059;-84
2022/04/23 04:15:23;;;;;;;10.32;9.23;;;;;;;8.94;100.00;100999.50;4937751;28;20356;-84
2022/04/23 04:17:52;;;;;;;11.77;9.35;;;;;;;8.93;100.00;101000.34;4945348;29;20383;-83
2022/04/23 04:20:21;;;;;;;12.20;9.27;;;;;;;8.92;100.00;101008.22;4895088;29;20090;-84
2022/04/23 04:22:50;;;;;;;14.37;9.47;;;;;;;8.90;100.00;101002.06;4909236;29;20040;-84
2022/04/23 04:25:20;;;;;;;10.93;9.68;;;;;;;8.89;100.00;101003.81;4922763;28;20048;-83
2022/04/23 04:27:49;;;;;;;13.00;8.75;;;;;;;8.88;100.00;100998.53;4928728;29;20415;-83
2022/04/23 04:30:17;;;;;;;11.18;9.65;;;;;;;8.87;100.00;101010.81;4905409;29;20047;-83
2022/04/23 04:32:51;;;;;;;10.45;9.20;;;;;;;8.85;100.00;101007.28;4915455;29;20070;-85
2022/04/23 04:35:20;;;;;;;10.90;9.48;;;;;;;8.83;100.00;101011.63;4911569;29;20445;-85
2022/04/23 04:37:48;;;;;;;9.63;8.63;;;;;;;8.82;100.00;100993.22;4909981;29;20055;-85
2022/04/23 04:40:17;;;;;;;16.13;9.77;;;;;;;8.81;100.00;100996.69;4928749;29;20044;-85
2022/04/23 04:42:45;;;;;;;9.43;8.52;;;;;;;8.82;100.00;101004.59;4925100;28;20059;-84
2022/04/23 04:45:14;;;;;;;10.18;9.18;;;;;;;8.88;100.00;101009.03;4903823;29;20041;-84
2022/04/23 04:47:43;;;;;;;9.10;8.13;;;;;;;9.04;100.00;101005.75;4913700;29;20048;-84
2022/04/23 04:50:11;;;;;;;11.02;9.23;;;;;;;9.14;100.00;101004.09;4909769;29;20055;-83
2022/04/23 04:52:40;;;;;;;9.85;8.85;;;;;;;9.21;100.00;101012.97;4910873;29;20514;-83
2022/04/23 04:55:10;;;;;;;10.55;9.20;;;;;;;9.22;100.00;101009.44;4905259;29;20413;-84
2022/04/23 04:57:38;;;;;;;10.32;7.93;;;;;;;9.18;100.00;101003.28;4909671;29;20047;-84
2022/04/23 05:00:08;;;;;;;14.15;8.88;;;;;;;9.16;100.00;101015.53;4921353;29;20056;-83
2022/04/23 05:02:37;;;;;;;10.80;8.55;;;;;;;9.11;100.00;101010.22;4940112;28;20060;-84
2022/04/23 05:05:07;;;;;;;9.50;8.35;;;;;;;9.10;100.00;101020.72;4941270;28;20052;-84
2022/04/23 05:07:36;;;;;;;9.10;8.20;;;;;;;9.09;100.00;101024.19;4927701;29;20405;-84
2022/04/23 05:10:05;;;;;;;8.50;7.70;;;;;;;9.06;100.00;101025.06;4910786;29;20052;-85
2022/04/23 05:12:33;;;;;;;9.07;7.85;;;;;;;9.08;100.00;101022.44;4910630;29;20063;-84
2022/04/23 05:15:01;;;;;;;9.77;8.55;;;;;;;9.10;100.00;101026.84;4891924;29;20052;-84
2022/04/23 05:17:30;;;;;;;8.95;8.02;;;;;;;9.11;100.00;101032.97;4908877;29;20372;-84
2022/04/23 05:19:59;;;;;;;13.57;8.40;;;;;;;9.12;100.00;101040.03;4945308;28;20056;-84
2022/04/23 05:22:27;;;;;;;12.50;8.82;;;;;;;9.12;100.00;101045.28;4915705;29;20041;-83
2022/04/23 05:24:55;;;;;;;9.80;8.80;;;;;;;9.14;100.00;101048.81;4947343;28;20402;-84
2022/04/23 05:27:26;;;;;;;12.13;8.63;;;;;;;9.16;100.00;101047.94;4922078;29;20067;-84
2022/04/23 05:29:54;;;;;;;8.35;7.45;;;;;;;9.17;100.00;101038.34;4896581;29;20048;-84
2022/04/23 05:32:23;;;;;;;9.30;8.25;;;;;;;9.21;100.00;101039.25;4936336;28;20526;-84
2022/04/23 05:34:58;;;;;;;8.48;7.60;;;;;;;9.25;100.00;101046.31;4929650;29;20125;-84
2022/04/23 05:37:26;;;;;;;9.75;8.32;;;;;;;9.31;100.00;101039.38;4943830;28;20545;-83
2022/04/23 05:39:55;;;;;;;9.95;8.68;;;;;;;9.35;100.00;101041.16;4923971;29;20049;-84
2022/04/23 05:42:23;;;;;;;10.80;8.98;;;;;;;9.37;100.00;101046.44;4941117;28;20253;-83
2022/04/23 05:44:52;;;;;;;10.73;8.10;;;;;;;9.39;100.00;101043.84;4961994;28;20505;-84
2022/04/23 05:47:20;;;;;;;8.85;7.85;;;;;;;9.44;100.00;101047.41;4923997;28;20595;-84
2022/04/23 05:49:52;;;;;;;9.57;8.38;;;;;;;9.54;100.00;101049.25;4946951;28;20040;-83
2022/04/23 05:52:20;;;;;;;10.10;8.18;;;;;;;9.61;100.00;101047.59;4913237;29;20622;-84
2022/04/23 05:54:49;;;;;;;9.07;7.85;;;;;;;9.69;100.00;101035.38;4916718;29;20044;-83
2022/04/23 05:57:17;;;;;;;9.82;7.55;;;;;;;9.88;100.00;101045.19;4926676;28;20604;-84
2022/04/23 05:59:45;;;;;;;9.32;8.43;;;;;;;10.39;100.00;101047.41;4918834;29;20059;-84
2022/04/23 06:02:14;;;;;;;8.60;7.70;;;;;;;10.79;100.00;101051.16;4889719;29;20086;-83
2022/04/23 06:04:45;;;;;;;9.80;8.00;;;;;;;11.08;100.00;101045.19;4914168;29;20048;-83
2022/04/23 06:07:14;;;;;;;8.50;7.60;;;;;;;11.30;100.00;101044.38;4931508;29;20070;-84
2022/04/23 06:09:42;;;;;;;11.88;8.27;;;;;;;11.43;100.00;101047.06;4933763;29;20052;-83
2022/04/23 06:12:12;;;;;;;9.45;8.48;;;;;;;11.42;99.97;101054.09;4940759;28;20055;-84
2022/04/23 06:14:40;;;;;;;9.93;8.15;;;;;;;11.36;98.27;101055.81;4949069;28;20044;-83
2022/04/23 06:17:11;;;;;;;9.48;8.60;;;;;;;11.25;97.87;101054.03;4913194;28;20052;-85
2022/04/23 06:19:43;;;;;;;9.65;8.68;;;;;;;11.23;97.92;101057.56;4935190;28;20048;-84
2022/04/23 06:22:11;;;;;;;9.27;8.18;;;;;;;11.23;96.97;101055.78;4913167;29;20060;-84
2022/04/23 06:24:39;;;;;;;12.27;9.13;;;;;;;11.25;96.37;101069.88;4916448;29;20044;-84
2022/04/23 06:27:08;;;;;;;8.80;7.90;;;;;;;11.25;95.95;101074.25;4908724;29;20521;-84
2022/04/23 06:29:39;;;;;;;9.57;8.57;;;;;;;11.29;95.45;101060.22;4931443;29;20060;-84
2022/04/23 06:32:20;;;;;;;9.20;8.30;;;;;;;11.41;94.79;101054.09;4892940;29;20041;-84
2022/04/23 06:34:50;;;;;;;9.77;8.88;;;;;;;11.60;93.82;101070.84;4918906;29;20505;-85
2022/04/23 06:37:19;;;;;;;11.10;8.68;;;;;;;11.79;93.53;101059.44;4930761;29;20667;-85
2022/04/23 06:39:49;;;;;;;9.85;7.68;;;;;;;11.82;92.45;101064.72;4945105;28;20099;-85
2022/04/23 06:42:18;;;;;;;12.40;8.50;;;;;;;11.83;91.73;101076.16;4942489;28;20537;-84
2022/04/23 06:44:48;;;;;;;10.35;8.18;;;;;;;11.75;91.04;101062.97;4902430;29;20048;-84
2022/04/23 06:47:16;;;;;;;8.50;7.70;;;;;;;11.67;90.85;101067.34;4936922;28;20032;-85
2022/04/23 06:49:45;;;;;;;8.55;7.65;;;;;;;11.67;91.64;101070.88;4926274;29;20049;-85
2022/04/23 06:52:13;;;;;;;9.35;8.38;;;;;;;11.78;91.24;101065.63;4914979;29;20571;-83
2022/04/23 06:54:42;;;;;;;9.73;8.27;;;;;;;11.84;90.78;101070.03;4932996;29;20044;-84
2022/04/23 06:57:10;;;;;;;10.48;8.15;;;;;;;11.92;91.16;101068.31;4910781;29;20060;-83
2022/04/23 06:59:38;;;;;;;8.02;7.20;;;;;;;12.00;90.47;101069.22;4932146;29;20056;-84
2022/04/23 07:02:07;;;;;;;11.95;8.10;;;;;;;12.12;91.11;101078.00;4906323;29;20056;-83
2022/04/23 07:04:36;;;;;;;9.30;8.40;;;;;;;12.22;90.09;101069.19;4942434;28;20044;-83
2022/04/23 07:07:05;;;;;;;11.98;8.13;;;;;;;12.39;90.08;101058.63;4928581;29;20479;-84
2022/04/23 07:09:34;;;;;;;10.95;7.63;;;;;;;12.56;89.97;101066.53;4916947;29;20056;-84
2022/04/23 07:12:05;;;;;;;10.55;7.55;;;;;;;12.63;89.76;101066.53;4943567;28;20409;-84
2022/04/23 07:14:33;;;;;;;10.63;8.05;;;;;;;12.63;87.72;101058.59;4904544;29;20056;-83
2022/04/23 07:17:10;;;;;;;9.05;8.00;;;;;;;12.63;87.85;101063.00;4913528;29;20047;-83
2022/04/23 07:19:39;;;;;;;;;;;;;;;12.63;84.45;101058.59;4917046;29;20525;-83
2022/04/23 07:22:09;;;;;;;8.45;7.68;;;;;;;12.73;86.81;101058.56;4946125;28;19924;-83
2022/04/23 07:24:37;;;;;;;8.55;7.53;;;;;;;12.79;86.91;101050.63;4916972;29;20060;-83
2022/04/23 07:27:06;;;;;;;8.77;7.90;;;;;;;12.82;86.74;101054.13;4916006;29;20398;-86
2022/04/23 07:29:35;;;;;;;8.65;7.88;;;;;;;12.95;87.15;101048.78;4914253;29;20055;-85
2022/04/23 07:32:05;;;;;;;8.82;7.95;;;;;;;13.12;85.41;101072.53;4904916;29;20524;-83
2022/04/23 07:37:29;;;;;;;8.90;8.00;;;;;;;13.16;84.47;101043.44;4915028;29;20049;-83
2022/04/23 07:39:59;;;;;;;9.25;8.25;;;;;;;13.22;84.15;101040.75;4911237;29;20048;-83
2022/04/23 07:42:28;;;;;;;8.57;7.78;;;;;;;13.26;82.92;101037.19;4914899;29;20048;-83
2022/04/23 07:44:57;;;;;;;8.63;7.82;;;;;;;13.27;82.83;101035.47;4883384;29;20063;-83
2022/04/23 07:47:27;;;;;;;9.93;9.02;;;;;;;13.29;81.86;101038.06;4910725;29;20575;-84
2022/04/23 07:49:58;;;;;;;8.50;7.80;;;;;;;13.37;82.22;101044.25;4912551;29;20052;-84
2022/04/23 07:52:38;;;;;;;10.75;8.20;;;;;;;13.36;81.53;101038.06;4917255;29;20055;-84
2022/04/23 07:55:07;;;;;;;8.95;8.05;;;;;;;13.38;81.83;101031.03;4925495;29;20044;-84
2022/04/23 07:57:35;;;;;;;8.65;7.85;;;;;;;13.48;82.75;101034.50;4939190;28;20036;-84
2022/04/23 08:00:08;;;;;;;9.23;8.35;;;;;;;13.51;81.28;101031.81;4881783;29;20063;-84
2022/04/23 08:02:38;;;;;;;9.10;8.18;;;;;;;13.44;79.79;101038.94;4942105;28;20048;-83
2022/04/23 08:05:10;;;;;;;9.52;8.57;;;;;;;13.36;79.58;101031.91;4917310;28;20044;-83
2022/04/23 08:07:39;;;;;;;8.77;7.88;;;;;;;13.29;79.65;101022.19;4954455;28;20048;-83
2022/04/23 08:10:09;;;;;;;9.30;8.40;;;;;;;13.30;79.16;101023.97;4905958;29;20048;-83
2022/04/23 08:12:37;;;;;;;9.30;8.07;;;;;;;13.23;78.75;101020.47;4914731;29;20405;-83
2022/04/23 08:15:07;;;;;;;11.30;7.75;;;;;;;13.19;78.05;101030.19;4938236;28;20060;-82
2022/04/23 08:17:35;;;;;;;8.70;7.90;;;;;;;13.17;78.57;101060.19;4944495;28;20020;-83
2022/04/23 08:20:06;;;;;;;10.30;8.77;;;;;;;13.14;78.56;101016.13;4914033;29;20406;-80
2022/04/23 08:22:36;;;;;;;8.45;7.65;;;;;;;13.17;78.06;101016.06;4933001;28;20052;-84
2022/04/23 08:25:06;;;;;;;12.63;7.80;;;;;;;13.31;78.54;101016.06;4931113;28;20059;-84
2022/04/23 08:27:50;;;;;;;9.27;7.80;;;;;;;13.31;74.97;101015.16;4916708;29;20063;-84
2022/04/23 08:30:34;;;;;;;8.85;7.95;;;;;;;13.41;78.19;101006.28;4937512;28;20051;-84
2022/04/23 08:33:04;;;;;;;8.43;7.65;;;;;;;13.43;75.34;101012.47;4904199;29;20052;-84
2022/04/23 08:35:37;;;;;;;10.13;7.73;;;;;;;13.52;75.03;100995.66;4927650;29;20395;-84
2022/04/23 08:38:07;;;;;;;10.05;7.68;;;;;;;13.55;74.78;101008.84;4935484;28;20044;-83
2022/04/23 08:40:43;;;;;;;8.50;7.70;;;;;;;13.68;76.09;101015.81;4908777;29;20537;-84
2022/04/23 08:43:11;;;;;;;8.80;8.00;;;;;;;13.77;74.82;100999.00;4919588;28;20046;-84
2022/04/23 08:45:40;;;;;;;10.15;8.13;;;;;;;13.93;75.56;101012.97;4956515;28;20375;-85
2022/04/23 08:48:11;;;;;;;10.95;8.10;;;;;;;14.10;73.73;101004.91;4915319;29;20374;-83
2022/04/23 08:50:42;;;;;;;10.13;7.68;;;;;;;14.22;72.96;101005.66;4948745;28;20055;-86
2022/04/23 08:53:20;;;;;;;8.52;7.72;;;;;;;14.35;67.82;101002.91;4935038;28;20040;-84
2022/04/23 08:56:01;;;;;;;9.47;7.80;;;;;;;14.40;69.45;101001.06;4953051;28;20040;-84
2022/04/23 08:58:31;;;;;;;9.88;8.43;;;;;;;14.47;69.47;100999.25;4946014;28;20315;-84
2022/04/23 09:01:00;;;;;;;11.70;7.97;;;;;;;14.58;70.92;101000.06;4901322;29;20048;-83
2022/04/23 09:03:31;;;;;;;9.50;8.45;;;;;;;14.64;66.00;101020.31;4926542;28;20055;-81
2022/04/23 09:05:59;;;;;;;10.00;9.10;;;;;;;14.59;67.36;100993.84;4936108;28;20044;-83
2022/04/23 09:08:29;;;;;;;10.52;8.55;;;;;;;14.60;68.48;100995.59;4926016;28;22238;-84
2022/04/23 09:11:00;;;;;;;9.27;7.65;;;;;;;14.65;69.81;101001.75;4929192;28;20047;-82
2022/04/23 09:13:31;;;;;;;7.88;7.07;;;;;;;14.79;68.61;101004.22;4917667;29;20048;-83
2022/04/23 09:24:48;;;;;;;10.48;8.95;;;;;;;14.99;66.16;100990.75;4922405;28;20522;-84
2022/04/23 09:27:17;;;;;;;7.80;7.10;;;;;;;14.93;66.65;101002.31;4942987;28;20533;-86
2022/04/23 09:29:58;;;;;;;8.45;7.65;;;;;;;14.79;63.44;100994.50;4930125;29;20036;-86
2022/04/23 09:32:27;;;;;;;;;;;;;;;14.79;64.37;100989.19;4933198;28;20040;-81
2022/04/23 09:35:16;;;;;;;8.93;8.02;;;;;;;14.83;64.21;100976.75;4954700;28;19930;-81
2022/04/23 09:40:35;;;;;;;12.57;7.45;;;;;;;15.13;64.73;100970.19;4922636;28;20036;-83
2022/04/23 09:43:08;;;;;;;7.55;6.85;;;;;;;15.26;63.80;100970.03;4878539;29;20076;-83
2022/04/23 09:45:43;;;;;;;7.10;6.32;;;;;;;15.28;63.17;100969.09;4892135;29;20048;-82
2022/04/23 09:48:12;;;;;;;7.20;6.60;;;;;;;15.30;61.96;100969.06;4886362;29;20490;-83
2022/04/23 09:50:45;;;;;;;6.88;6.25;;;;;;;15.30;61.63;100959.31;4906470;29;20056;-82
2022/04/23 09:53:19;;;;;;;7.50;6.75;;;;;;;15.29;61.27;100948.72;4893570;29;20701;-83
2022/04/23 09:55:51;;;;;;;6.88;6.22;;;;;;;15.30;60.54;100953.16;4877915;29;20052;-81
2022/04/23 09:58:22;;;;;;;7.43;6.72;;;;;;;15.25;58.85;100941.72;4886773;29;20734;-81
2022/04/23 10:00:51;;;;;;;6.90;6.30;;;;;;;15.18;60.29;100955.06;4896085;29;20047;-81
2022/04/23 10:03:26;;;;;;;11.35;6.78;;;;;;;15.25;60.86;100958.50;4852475;29;20586;-82
2022/04/23 10:05:56;;;;;;;7.35;6.47;;;;;;;15.36;61.14;100953.03;4893288;29;20044;-83
2022/04/23 10:08:41;;;;;;;7.55;6.03;;;;;;;15.46;60.32;100953.78;4892404;29;20056;-82
2022/04/23 10:11:16;;;;;;;8.02;6.18;;;;;;;15.47;58.64;100964.38;4889884;29;20103;-84
2022/04/23 10:13:52;;;;;;;7.53;6.82;;;;;;;15.36;57.59;100956.56;4914814;29;20059;-82
2022/04/23 10:16:22;;;;;;;7.40;6.70;;;;;;;15.30;58.69;100939.88;4930478;29;20269;-82
2022/04/23 10:18:51;;;;;;;6.28;5.68;;;;;;;15.38;58.10;100952.13;4941594;28;20048;-84
2022/04/23 10:21:30;;;;;;;9.10;5.80;;;;;;;15.43;56.82;100961.81;4927094;28;20048;-84
2022/04/23 10:24:28;;;;;;;9.05;6.10;;;;;;;15.58;56.14;100950.94;4952326;28;20063;-83
2022/04/23 10:27:07;;;;;;;5.78;5.30;;;;;;;15.68;57.22;100941.06;4894959;29;21147;-82
2022/04/23 10:29:56;;;;;;;6.20;5.40;;;;;;;15.77;57.08;100931.16;4942320;28;20032;-82
2022/04/23 10:32:40;;;;;;;6.60;5.80;;;;;;;15.87;53.00;100941.66;4947312;28;20048;-84
2022/04/23 10:36:00;;;;;;;4.95;4.55;;;;;;;15.87;51.72;100929.22;4929832;28;20059;-86
2022/04/23 10:38:29;;;;;;;6.03;5.40;;;;;;;15.98;54.96;100943.22;4934767;28;20071;-87
2022/04/23 10:41:12;;;;;;;5.20;4.80;;;;;;;15.97;52.57;100930.84;4933467;28;20056;-88
2022/04/23 10:44:05;;;;;;;9.05;5.05;;;;;;;15.96;51.26;100939.69;4924264;29;20534;-85
2022/04/23 10:46:36;;;;;;;6.90;5.20;;;;;;;16.00;52.85;100943.19;4936817;28;20055;-85
2022/04/23 10:49:24;;;;;;;9.13;5.00;;;;;;;15.96;52.44;100945.03;4945811;28;20067;-85
2022/04/23 10:51:55;;;;;;;6.82;4.60;;;;;;;16.06;54.25;100948.38;4949367;28;20245;-86
2022/04/23 10:54:47;;;;;;;6.22;4.57;;;;;;;16.18;50.48;100945.53;4957897;28;20036;-85
2022/04/23 10:57:16;;;;;;;5.15;4.75;;;;;;;16.20;52.43;100950.81;4912038;28;20037;-83
2022/04/23 10:59:49;;;;;;;4.88;4.47;;;;;;;16.15;52.13;100944.69;4938615;28;20048;-79
2022/04/23 11:02:24;;;;;;;4.70;4.30;;;;;;;16.10;51.10;100933.25;4937529;28;20043;-85
2022/04/23 11:14:44;;;;;;;5.25;4.07;;;;;;;16.47;49.34;100936.09;4903135;28;20052;-83
2022/04/23 11:17:44;;;;;;;5.22;4.45;;;;;;;16.60;49.30;100926.09;4921147;28;20052;-81
2022/04/23 11:20:14;;;;;;;9.37;4.03;;;;;;;16.63;50.04;100941.97;4924992;28;20186;-82
2022/04/23 11:22:45;;;;;;;4.35;3.90;;;;;;;16.60;48.88;100926.09;4963017;28;20810;-82
2022/04/23 11:25:15;;;;;;;5.30;3.90;;;;;;;16.57;49.45;100929.69;4944430;28;20418;-83
2022/04/23 11:27:48;;;;;;;6.50;3.95;;;;;;;16.67;48.73;100921.50;4927800;29;20398;-82
2022/04/23 11:30:26;;;;;;;4.03;3.70;;;;;;;16.61;47.13;100916.31;4921338;28;20048;-83
2022/04/23 11:33:07;;;;;;;7.30;4.00;;;;;;;16.70;49.36;100926.78;4914050;29;20402;-83
2022/04/23 11:35:36;;;;;;;9.50;3.72;;;;;;;16.65;48.65;100918.88;4937301;28;20056;-82
2022/04/23 11:38:05;;;;;;;7.97;5.95;;;;;;;16.70;49.19;100914.34;4922369;29;20059;-83
2022/04/23 11:40:34;;;;;;;7.32;5.85;;;;;;;16.78;48.63;100914.19;4922825;29;20043;-82
2022/04/23 11:43:03;;;;;;;6.20;3.90;;;;;;;16.81;47.72;100911.47;4912134;29;20047;-81
2022/04/23 11:45:47;;;;;;;4.03;3.60;;;;;;;16.89;48.58;100912.19;4875739;29;20059;-83
2022/04/23 11:48:15;;;;;;;;;;;;;;;16.95;47.04;100919.16;4942741;28;20052;-81
2022/04/23 11:50:44;;;;;;;6.45;4.43;;;;;;;17.04;49.81;100905.66;4921425;29;19935;-82
2022/04/23 11:53:12;;;;;;;8.65;4.78;;;;;;;17.06;48.41;100898.50;4926088;29;20807;-82
2022/04/23 11:55:41;;;;;;;4.53;3.72;;;;;;;17.08;49.07;100912.66;4941164;28;20055;-83
2022/04/23 11:58:09;;;;;;;5.50;3.78;;;;;;;17.11;47.73;100907.28;4907285;29;20055;-82
2022/04/23 12:00:38;;;;;;;4.53;4.13;;;;;;;17.13;47.14;100907.25;4909933;29;21204;-82
2022/04/23 12:03:08;;;;;;;4.32;3.92;;;;;;;17.05;47.50;100893.22;4908927;29;20063;-83